Time;durP1;ratioP1;P1;durP2;ratioP2;P2;SDS_P1;SDS_P2;PMS_P1;PMS_P2;Temp;Humidity;BMP_temperature;BMP_pressure;BME280_temperature;BME280_humidity;BME280_pressure;Samples;Min_cycle;Max_cycle;Signal;HPM_P1;HPM_P2
2022/02/10 00:07:59;;;;;;;4.90;3.50;;;8.30;99.90;;;9.08;100.00;-20035.84;5093745;28;20273;-66
2022/02/10 00:13:39;;;;;;;3.83;2.90;;;8.30;99.90;;;9.07;100.00;-20035.50;5093516;28;20273;-66
2022/02/10 00:19:05;;;;;;;4.20;3.40;;;8.30;99.90;;;9.10;100.00;-20036.72;5091469;28;20299;-67
2022/02/10 00:21:45;;;;;;;4.53;3.30;;;8.30;99.90;;;9.09;100.00;-20036.19;5093902;28;20223;-67
2022/02/10 00:24:37;;;;;;;4.33;3.63;;;8.30;99.90;;;9.08;100.00;-20035.84;5072795;28;20280;-66
2022/02/10 00:35:29;;;;;;;4.30;3.53;;;8.30;99.90;;;9.11;100.00;-20036.88;5072603;28;20224;-66
2022/02/10 00:38:00;;;;;;;4.53;3.80;;;8.30;99.90;;;9.19;100.00;-20039.63;5072481;28;20298;-66
2022/02/10 00:40:31;;;;;;;3.40;3.07;;;8.30;99.90;;;9.35;100.00;-20045.25;5079275;28;20228;-66
2022/02/10 00:43:02;;;;;;;3.53;3.23;;;8.30;99.90;;;9.31;100.00;-20043.88;5092749;28;20244;-66
2022/02/10 00:45:32;;;;;;;3.53;3.23;;;8.40;99.90;;;9.28;100.00;-20042.88;5093257;28;20241;-66
2022/02/10 00:48:09;;;;;;;4.67;3.70;;;8.40;99.90;;;9.30;100.00;-20043.38;5092491;28;20234;-66
2022/02/10 00:50:42;;;;;;;4.80;4.10;;;8.40;99.90;;;9.33;100.00;-20044.41;5092942;28;20227;-71
2022/02/10 00:53:16;;;;;;;4.17;3.73;;;8.30;99.90;;;9.41;100.00;-20047.13;5094888;28;20224;-75
2022/02/10 00:55:46;;;;;;;5.20;3.73;;;8.40;99.90;;;9.29;100.00;-20043.03;5096852;28;20638;-70
2022/02/10 00:58:22;;;;;;;4.43;3.73;;;8.40;99.90;;;9.07;100.00;-20035.69;5092907;28;20220;-72
2022/02/10 01:31:19;;;;;;;4.67;3.53;;;8.20;99.90;;;9.10;100.00;-20036.72;5071473;28;20756;-72
2022/02/10 01:33:47;;;;;;;5.13;4.00;;;8.20;99.90;;;9.08;100.00;-20036.03;5071783;28;20236;-72
2022/02/10 01:36:16;;;;;;;5.17;3.93;;;8.20;99.90;;;9.06;100.00;-20035.34;5071870;28;20566;-72
2022/02/10 01:38:45;;;;;;;4.30;3.60;;;8.20;99.90;;;8.93;100.00;-20030.72;5071550;28;20259;-71
2022/02/10 01:58:05;;;;;;;3.80;3.40;;;8.30;99.90;;;9.16;100.00;-20038.59;5071043;28;20184;-71
2022/02/10 02:03:24;;;;;;;3.90;3.60;;;8.30;99.90;;;9.25;100.00;-20041.66;5073924;28;20243;-72
2022/02/10 02:05:59;;;;;;;3.87;3.37;;;8.30;99.90;;;9.12;100.00;-20037.41;5072448;28;20225;-73
2022/02/10 02:08:33;;;;;;;3.67;3.30;;;8.20;99.90;;;9.06;100.00;-20035.34;5070952;28;20248;-72
2022/02/10 02:11:02;;;;;;;5.07;3.60;;;8.20;99.90;;;9.05;100.00;-20034.84;5082707;28;20255;-70
2022/02/10 02:13:31;;;;;;;4.40;4.00;;;8.20;99.90;;;9.05;100.00;-20035.00;5091220;28;20759;-72
2022/02/10 02:16:02;;;;;;;4.10;3.70;;;8.20;99.90;;;9.14;100.00;-20038.06;5091002;28;20223;-71
2022/02/10 02:18:30;;;;;;;4.80;3.70;;;8.30;99.90;;;9.03;100.00;-20034.16;5091975;28;20253;-71
2022/02/10 02:21:00;;;;;;;3.97;3.50;;;8.20;99.90;;;9.00;100.00;-20033.28;5090847;28;20224;-71
2022/02/10 02:23:31;;;;;;;3.83;3.40;;;8.20;99.90;;;8.95;100.00;-20031.59;5091041;28;20308;-72
2022/02/10 02:26:05;;;;;;;3.80;3.40;;;8.20;99.90;;;8.88;100.00;-20029.19;5091255;28;20281;-72
2022/02/10 02:28:38;;;;;;;4.43;3.80;;;8.10;99.90;;;8.95;100.00;-20031.41;5091047;28;20273;-73
2022/02/10 02:31:11;;;;;;;4.60;3.90;;;8.10;99.90;;;8.97;100.00;-20032.28;5090896;28;20812;-70
2022/02/10 02:36:59;;;;;;;6.40;3.70;;;8.10;99.90;;;8.89;100.00;-20029.38;5087441;28;20227;-72
2022/02/10 03:07:07;;;;;;;4.93;3.70;;;8.20;99.90;;;9.06;100.00;-20035.19;5091513;28;20247;-71
2022/02/10 03:09:41;;;;;;;4.57;4.13;;;8.20;99.90;;;9.01;100.00;-20033.47;5092755;28;20245;-72
2022/02/10 03:12:12;;;;;;;5.33;3.67;;;8.20;99.90;;;8.97;100.00;-20032.09;5091066;28;20571;-72
2022/02/10 03:14:47;;;;;;;5.90;3.73;;;8.20;99.90;;;9.06;100.00;-20035.34;5090716;28;20774;-67
2022/02/10 03:20:15;;;;;;;5.37;4.03;;;8.10;99.90;;;9.23;100.00;-20041.16;5090858;28;20244;-66
2022/02/10 03:59:38;;;;;;;4.27;3.57;;;8.20;99.90;;;9.26;100.00;-20042.19;5094435;28;20239;-66
2022/02/10 04:02:54;;;;;;;5.10;3.70;;;8.10;99.90;;;9.10;100.00;-20036.53;4991241;28;20666;-72
2022/02/10 04:08:24;;;;;;;4.37;3.77;;;8.10;99.90;;;8.92;100.00;-20030.38;5054679;28;20312;-75
2022/02/10 04:11:15;;;;;;;5.23;4.00;;;8.10;99.90;;;8.82;100.00;-20027.16;5073713;28;20315;-75
2022/02/10 04:13:55;;;;;;;5.43;4.10;;;8.00;99.90;;;8.67;100.00;-20022.03;5073239;28;20216;-71
2022/02/10 04:16:27;;;;;;;5.27;4.03;;;7.90;99.90;;;9.00;100.00;-20033.28;5073399;28;20308;-72
2022/02/10 04:21:56;;;;;;;4.50;3.83;;;7.90;99.90;;;8.91;100.00;-20030.22;5062286;28;20225;-71
2022/02/10 04:24:40;;;;;;;6.50;4.30;;;7.90;99.90;;;8.77;100.00;-20025.44;5084704;28;20227;-72
2022/02/10 04:27:15;;;;;;;4.90;4.40;;;7.90;99.90;;;8.60;100.00;-20019.81;5098112;28;20261;-71
2022/02/10 04:37:18;;;;;;;5.73;4.50;;;7.80;99.90;;;8.37;100.00;-20011.78;5092925;28;20259;-73
2022/02/10 04:38:38;;;;;;;5.93;4.53;;;7.60;99.90;;;8.14;100.00;-20004.06;5093048;28;20251;-70
2022/02/10 04:57:56;;;;;;;7.07;5.77;;;7.10;99.90;;;8.03;100.00;-20000.16;5092026;28;20690;-65
2022/02/10 05:00:39;;;;;;;6.17;5.53;;;7.10;99.90;;;7.79;100.00;-19991.94;5092827;28;20526;-67
2022/02/10 05:03:46;;;;;;;5.37;4.83;;;7.10;99.90;;;7.66;100.00;-19987.50;5092302;28;20212;-66
2022/02/10 05:15:10;;;;;;;6.00;5.40;;;7.00;99.90;;;7.48;100.00;-19981.53;5067552;28;20248;-66
2022/02/10 05:17:56;;;;;;;8.50;5.67;;;6.90;99.90;;;7.54;100.00;-19983.41;5071418;28;20622;-66
2022/02/10 05:20:49;;;;;;;6.20;5.30;;;6.80;99.90;;;7.79;100.00;-19991.94;5086228;28;20663;-65
2022/02/10 05:23:28;;;;;;;6.60;5.40;;;6.90;99.90;;;7.49;100.00;-19981.69;5092027;28;20247;-71
2022/02/10 05:31:46;;;;;;;6.07;5.10;;;6.90;99.90;;;7.50;100.00;-19982.03;5091734;28;20657;-66
2022/02/10 05:34:13;;;;;;;6.87;5.80;;;6.90;99.90;;;7.38;100.00;-19978.28;5091690;28;20228;-66
2022/02/10 05:36:42;;;;;;;6.33;5.50;;;6.80;99.90;;;7.44;100.00;-19980.31;5091369;28;20254;-65
2022/02/10 05:39:16;;;;;;;9.27;6.83;;;6.70;99.90;;;7.54;100.00;-19983.56;5092387;28;20223;-66
2022/02/10 05:42:00;;;;;;;6.47;5.50;;;6.80;99.90;;;7.62;100.00;-19986.31;5091755;28;20251;-67
2022/02/10 05:44:36;;;;;;;6.50;5.80;;;6.80;99.90;;;7.65;100.00;-19987.34;5071017;28;20489;-68
2022/02/10 05:53:05;;;;;;;7.90;5.97;;;6.70;99.90;;;7.32;100.00;-19976.22;5071786;28;20247;-66
2022/02/10 05:55:41;;;;;;;6.77;5.90;;;6.70;99.90;;;7.70;100.00;-19989.03;5071364;28;20216;-66
2022/02/10 05:58:18;;;;;;;8.13;6.90;;;6.80;99.90;;;7.47;100.00;-19981.00;5071242;28;20631;-66
2022/02/10 06:51:17;;;;;;;9.10;7.50;;;6.30;99.90;;;7.25;100.00;-19973.66;5087174;28;20211;-68
2022/02/10 06:53:55;;;;;;;9.67;7.50;;;6.30;99.90;;;7.43;100.00;-19979.97;5090706;28;20760;-72
2022/02/10 07:16:28;;;;;;;8.90;7.57;;;6.50;99.90;;;7.39;100.00;-19978.44;5069081;28;20208;-67
2022/02/10 07:47:12;;;;;;;10.73;9.00;;;6.60;99.90;;;7.51;100.00;-19982.38;5094318;28;20303;-63
2022/02/10 07:49:57;;;;;;;10.43;8.20;;;6.60;99.90;;;7.41;100.00;-19979.13;5094381;28;20303;-64
2022/02/10 07:53:05;;;;;;;10.67;8.33;;;6.60;99.90;;;7.43;100.00;-19979.97;5094391;28;20368;-63
2022/02/10 07:58:46;;;;;;;10.73;7.97;;;6.70;99.90;;;7.82;100.00;-19992.97;5077895;28;20900;-66
2022/02/10 08:57:01;;;;;;;9.77;7.03;;;8.50;99.90;;;9.77;100.00;-20059.44;5092981;28;20263;-72
2022/02/10 09:05:16;;;;;;;9.17;6.87;;;8.90;99.90;;;10.00;100.00;-20067.28;5071419;28;20311;-58
2022/02/10 09:08:14;;;;;;;8.47;6.37;;;8.90;99.90;;;9.95;100.00;-20065.41;5071680;28;20213;-60
2022/02/10 09:13:45;;;;;;;7.37;6.50;;;8.90;99.90;;;9.83;100.00;-20061.66;5074282;28;20197;-75
2022/02/10 09:22:21;;;;;;;7.67;6.43;;;9.00;99.90;;;10.32;100.00;-20078.06;5092919;28;20270;-79
2022/02/10 09:58:10;;;;;;;6.10;5.00;;;9.70;99.90;;;10.63;100.00;-20088.66;5070821;28;20576;-68
2022/02/10 10:00:49;;;;;;;6.70;5.63;;;9.60;99.90;;;10.58;100.00;-20086.94;5071356;28;20358;-67
2022/02/10 10:03:23;;;;;;;6.90;5.50;;;9.60;99.90;;;10.57;100.00;-20086.75;5071187;28;20234;-69
2022/02/10 10:06:00;;;;;;;6.63;5.40;;;9.60;99.90;;;10.48;100.00;-20083.53;5071102;28;20228;-68
2022/02/10 10:08:39;;;;;;;7.27;5.37;;;9.50;99.90;;;10.36;100.00;-20079.41;5070997;28;20596;-67
2022/02/10 10:12:00;;;;;;;6.23;5.33;;;9.50;99.90;;;10.55;100.00;-20085.91;5071159;28;20719;-67
2022/02/10 10:14:34;;;;;;;6.10;5.47;;;9.50;99.90;;;10.81;100.00;-20094.78;5070838;28;20223;-61
2022/02/10 10:17:33;;;;;;;6.97;5.37;;;9.70;99.90;;;10.93;100.00;-20098.88;5070818;28;20269;-66
2022/02/10 10:20:15;;;;;;;9.03;5.70;;;9.80;99.90;;;10.99;100.00;-20101.09;5070908;28;20335;-66
2022/02/10 10:23:01;;;;;;;7.87;5.37;;;9.90;99.90;;;11.22;100.00;-20108.63;5070983;28;20185;-67
2022/02/10 10:26:06;;;;;;;7.87;5.87;;;10.00;99.90;;;11.34;99.96;-20112.91;5070947;28;20292;-68
2022/02/10 10:51:37;;;;;;;8.47;4.97;;;10.60;99.90;;;11.77;92.22;-20127.59;5058486;27;20968;-73
2022/02/10 10:54:14;;;;;;;6.00;5.10;;;10.70;99.90;;;11.70;92.00;-20125.03;5029031;28;20313;-72
2022/02/10 10:56:51;;;;;;;7.17;5.30;;;10.70;99.90;;;11.68;92.90;-20124.34;5028420;28;20260;-73
2022/02/10 10:59:37;;;;;;;9.53;5.07;;;10.70;99.90;;;11.67;92.46;-20124.16;5028901;28;20303;-70
2022/02/10 11:22:50;;;;;;;7.17;5.13;;;10.90;99.90;;;12.09;92.22;-20138.34;4992232;28;20240;-65
2022/02/10 11:39:49;;;;;;;6.30;4.53;;;11.50;99.90;;;12.32;90.41;-20146.03;5036608;28;20260;-65
2022/02/10 11:42:35;;;;;;;8.83;5.07;;;11.30;99.90;;;12.14;91.74;-20140.22;5047012;28;20639;-71
2022/02/10 11:59:39;;;;;;;6.83;4.83;;;11.10;99.90;;;12.03;91.20;-20136.47;5038656;28;20233;-71
2022/02/10 12:29:34;;;;;;;8.47;6.67;;;9.40;99.90;;;10.23;100.00;-20074.97;5033270;28;20256;-65
2022/02/10 13:24:29;;;;;;;12.60;10.80;;;8.80;99.90;;;9.81;100.00;-20060.78;4974385;28;20234;-64
2022/02/10 14:09:47;;;;;;;13.87;10.57;;;8.80;99.90;;;9.87;100.00;-20062.84;5062377;28;20621;-66
2022/02/10 14:15:11;;;;;;;12.00;9.90;;;8.80;99.90;;;9.68;100.00;-20056.53;5067056;28;20263;-63
2022/02/10 14:17:47;;;;;;;14.13;10.53;;;8.80;99.90;;;9.70;100.00;-20057.22;5067293;28;20312;-67
2022/02/10 14:20:36;;;;;;;13.80;10.57;;;8.70;99.90;;;9.58;100.00;-20053.13;5067345;28;20232;-63
2022/02/10 14:23:18;;;;;;;13.43;10.30;;;8.70;99.90;;;9.52;100.00;-20051.06;5067031;28;20789;-65
2022/02/10 14:25:54;;;;;;;13.17;10.93;;;8.60;99.90;;;9.50;100.00;-20050.38;5066709;28;20224;-62
2022/02/10 14:28:25;;;;;;;15.13;11.47;;;8.50;99.90;;;9.54;100.00;-20051.75;5067118;28;20272;-64
2022/02/10 14:30:55;;;;;;;13.03;10.43;;;8.50;99.90;;;9.52;100.00;-20050.91;5066137;28;20217;-64
2022/02/10 14:33:27;;;;;;;13.90;11.43;;;8.50;99.90;;;9.58;100.00;-20053.13;5066503;28;20294;-64
2022/02/10 14:36:00;;;;;;;12.57;10.93;;;8.50;99.90;;;9.59;100.00;-20053.44;5055920;28;20707;-69
2022/02/10 14:38:45;;;;;;;16.20;12.00;;;8.60;99.90;;;9.55;100.00;-20051.91;5046813;28;20248;-69
2022/02/10 15:46:31;;;;;;;17.20;14.00;;;8.20;99.90;;;9.06;100.00;-20035.34;5052071;28;20221;-65
2022/02/10 15:52:00;;;;;;;19.67;12.03;;;8.10;99.90;;;9.02;100.00;-20033.81;5034990;28;20229;-66
2022/02/10 16:11:32;;;;;;;14.07;12.40;;;8.10;99.90;;;9.02;100.00;-20033.81;4951171;28;20344;-66
2022/02/10 16:17:01;;;;;;;17.80;12.17;;;8.00;99.90;;;8.89;100.00;-20029.53;5031650;28;20221;-61
2022/02/10 16:19:30;;;;;;;18.00;12.30;;;8.00;99.90;;;8.94;100.00;-20031.25;5031998;28;20609;-59
2022/02/10 16:22:06;;;;;;;42.23;37.87;;;7.90;99.90;;;9.00;100.00;-20033.13;5031539;28;20226;-59
2022/02/10 16:24:44;;;;;;;12.27;10.97;;;8.00;99.90;;;8.92;100.00;-20030.56;5031447;28;20320;-61
2022/02/10 16:27:16;;;;;;;15.40;11.53;;;8.00;99.90;;;8.79;100.00;-20025.94;5031460;28;20254;-60
2022/02/10 16:29:46;;;;;;;13.83;10.77;;;8.00;99.90;;;8.76;100.00;-20024.94;5031431;28;20320;-59
2022/02/10 16:32:19;;;;;;;13.13;11.50;;;7.90;99.90;;;8.70;100.00;-20022.88;5031719;28;20251;-60
2022/02/10 16:34:52;;;;;;;16.17;12.63;;;7.80;99.90;;;8.75;100.00;-20024.75;5031019;28;20261;-63
2022/02/10 16:37:27;;;;;;;14.97;12.17;;;7.80;99.90;;;8.70;100.00;-20022.88;5030318;28;20673;-67
2022/02/10 16:40:00;;;;;;;14.47;11.87;;;7.80;99.90;;;8.92;100.00;-20030.56;5029627;28;20252;-68
2022/02/10 16:42:33;;;;;;;15.60;12.23;;;7.90;99.90;;;8.92;100.00;-20030.38;5029630;28;20244;-69
2022/02/10 16:45:07;;;;;;;16.83;13.97;;;7.90;99.90;;;8.87;100.00;-20028.69;5030151;28;20226;-68
2022/02/10 16:47:40;;;;;;;14.40;12.40;;;7.90;99.90;;;8.81;100.00;-20026.63;5029358;28;20233;-68
2022/02/10 16:50:13;;;;;;;14.37;12.30;;;7.90;99.90;;;8.66;100.00;-20021.50;5028654;28;20260;-67
2022/02/10 16:52:53;;;;;;;16.53;12.87;;;7.90;99.90;;;8.83;100.00;-20027.47;5031398;28;20194;-68
2022/02/10 16:55:38;;;;;;;17.53;13.17;;;7.90;99.90;;;8.54;100.00;-20017.59;5031743;28;20281;-68
2022/02/10 16:58:22;;;;;;;15.87;13.03;;;7.80;99.90;;;8.83;100.00;-20027.31;5050998;28;20221;-68
2022/02/10 17:04:16;;;;;;;18.30;13.37;;;7.80;99.90;;;8.49;100.00;-20016.03;5047560;28;20642;-68
2022/02/10 17:18:28;;;;;;;19.63;15.93;;;7.60;99.90;;;8.47;100.00;-20015.34;5030425;28;20258;-68
2022/02/10 17:21:14;;;;;;;21.93;15.37;;;7.60;99.90;;;8.28;100.00;-20008.88;5030699;28;20697;-70
2022/02/10 17:26:45;;;;;;;20.03;15.60;;;7.50;99.90;;;8.18;100.00;-20005.28;5030936;28;20612;-68
2022/02/10 17:29:26;;;;;;;19.53;15.53;;;7.40;99.90;;;8.19;100.00;-20005.59;5030463;28;20634;-69
2022/02/10 17:32:08;;;;;;;21.60;16.40;;;7.30;99.90;;;8.18;100.00;-20005.44;5030598;28;20690;-69
2022/02/10 17:35:02;;;;;;;21.70;16.50;;;7.30;99.90;;;8.06;100.00;-20001.34;5030828;28;20320;-69
2022/02/10 17:41:24;;;;;;;20.70;16.10;;;7.20;99.90;;;7.87;100.00;-19994.69;5030668;28;20268;-68
2022/02/10 17:46:02;;;;;;;20.43;16.13;;;7.20;99.90;;;7.97;100.00;-19998.09;5029149;28;20721;-69
2022/02/10 17:51:44;;;;;;;21.10;16.80;;;7.10;99.90;;;7.99;100.00;-19998.94;5011041;28;20226;-68
2022/02/10 17:54:13;;;;;;;24.37;17.97;;;7.10;99.90;;;7.95;100.00;-19997.59;5010785;28;20527;-69
2022/02/10 17:56:42;;;;;;;22.27;17.47;;;7.10;99.90;;;8.12;100.00;-20003.22;5011073;28;20599;-67
2022/02/10 17:59:11;;;;;;;24.00;17.70;;;7.20;99.90;;;8.03;100.00;-20000.31;5010623;28;20710;-74
2022/02/10 18:01:42;;;;;;;18.57;16.30;;;7.10;99.90;;;8.00;100.00;-19999.13;5011285;28;20226;-73
2022/02/10 18:04:13;;;;;;;20.33;15.93;;;7.10;99.90;;;8.12;100.00;-20003.38;5012062;28;20202;-75
2022/02/10 18:06:44;;;;;;;19.13;14.90;;;7.20;99.90;;;8.03;100.00;-20000.16;5011501;28;20325;-74
2022/02/10 18:09:41;;;;;;;17.57;15.40;;;7.10;99.90;;;8.03;100.00;-20000.31;5026226;28;20253;-73
2022/02/10 18:12:54;;;;;;;18.90;14.73;;;7.10;99.90;;;8.12;100.00;-20003.22;5022583;28;20251;-66
2022/02/10 18:15:19;;;;;;;17.83;14.23;;;7.20;99.90;;;7.92;100.00;-19996.56;5048150;28;20316;-67
2022/02/10 18:17:52;;;;;;;19.93;13.87;;;7.10;99.90;;;8.08;100.00;-20002.03;5029704;28;20249;-67
2022/02/10 18:20:24;;;;;;;18.20;15.00;;;7.10;99.90;;;8.02;100.00;-19999.97;5031284;28;20249;-65
2022/02/10 18:23:02;;;;;;;17.70;14.57;;;7.20;99.90;;;8.20;100.00;-20005.97;5033839;28;20305;-69
2022/02/10 18:25:48;;;;;;;20.03;15.43;;;7.20;99.90;;;8.24;100.00;-20007.50;5034353;28;20186;-72
2022/02/10 18:28:52;;;;;;;20.30;15.30;;;7.30;99.90;;;8.17;100.00;-20005.09;5034476;28;20316;-74
2022/02/10 19:02:33;;;;;;;20.97;16.30;;;7.10;99.90;;;8.01;100.00;-19999.47;5033660;28;20272;-65
2022/02/10 19:07:53;;;;;;;24.23;18.00;;;7.10;99.90;;;7.92;100.00;-19996.38;5033136;28;20208;-69
2022/02/10 19:10:25;;;;;;;23.27;18.00;;;7.10;99.90;;;8.09;100.00;-20002.38;5033519;28;20646;-67
2022/02/10 19:12:56;;;;;;;22.93;17.77;;;7.10;99.90;;;8.13;100.00;-20003.56;5032516;28;20517;-65
2022/02/10 19:15:33;;;;;;;21.10;16.83;;;7.10;99.90;;;7.97;100.00;-19998.25;5032960;28;20701;-74
2022/02/10 19:18:04;;;;;;;21.63;17.83;;;7.20;99.90;;;8.05;100.00;-20001.00;5033271;28;20260;-68
2022/02/10 19:20:35;;;;;;;21.77;18.00;;;7.10;99.90;;;8.11;100.00;-20003.06;5019343;28;20665;-69
2022/02/10 19:23:05;;;;;;;19.00;15.97;;;7.10;99.90;;;7.94;100.00;-19997.25;5013212;28;20699;-66
2022/02/10 19:25:37;;;;;;;20.30;16.03;;;7.10;99.90;;;8.15;100.00;-20004.25;5013555;28;20241;-70
2022/02/10 19:28:08;;;;;;;22.30;15.63;;;7.10;99.90;;;7.97;100.00;-19998.09;5033490;28;20690;-72
2022/02/10 19:30:39;;;;;;;20.97;15.17;;;7.10;99.90;;;8.05;100.00;-20001.00;5033009;28;20307;-73
2022/02/10 19:33:13;;;;;;;19.60;15.67;;;7.10;99.90;;;7.94;100.00;-19997.06;5032714;28;20225;-69
2022/02/10 19:35:45;;;;;;;19.23;15.30;;;7.10;99.90;;;7.96;100.00;-19997.94;5032811;28;20227;-69
2022/02/10 19:38:17;;;;;;;20.07;15.93;;;7.10;99.90;;;7.97;100.00;-19998.25;5032738;28;20246;-66
2022/02/10 19:40:51;;;;;;;21.00;15.90;;;7.10;99.90;;;8.09;100.00;-20002.19;5032157;28;20217;-65
2022/02/10 19:43:21;;;;;;;18.57;14.83;;;7.10;99.90;;;8.00;100.00;-19999.13;5032718;28;20750;-63
2022/02/10 19:45:50;;;;;;;18.33;15.23;;;7.10;99.90;;;8.13;100.00;-20003.56;5032177;28;20222;-65
2022/02/10 19:48:19;;;;;;;20.87;15.77;;;7.10;99.90;;;8.11;100.00;-20002.88;5032728;28;20570;-60
2022/02/10 19:50:50;;;;;;;19.97;16.13;;;7.10;99.90;;;7.92;100.00;-19996.56;5031780;28;20221;-61
2022/02/10 19:53:20;;;;;;;21.50;15.83;;;7.10;99.90;;;7.95;100.00;-19997.41;5032710;28;20241;-67
2022/02/10 19:55:51;;;;;;;21.07;16.97;;;7.00;99.90;;;7.88;100.00;-19995.03;5032962;28;20268;-67
2022/02/10 19:58:22;;;;;;;22.40;16.37;;;7.00;99.90;;;7.76;100.00;-19991.09;5033048;28;20596;-65
2022/02/10 20:00:56;;;;;;;18.87;15.07;;;6.90;99.90;;;7.85;100.00;-19994.16;5032351;28;20624;-69
2022/02/10 20:03:26;;;;;;;20.80;16.20;;;6.90;99.90;;;7.82;100.00;-19992.97;5032263;28;20245;-64
2022/02/10 20:05:56;;;;;;;21.30;16.47;;;6.90;99.90;;;7.86;100.00;-19994.34;5032272;28;20249;-73
2022/02/10 20:08:26;;;;;;;20.90;16.87;;;6.90;99.90;;;7.90;100.00;-19995.88;5038983;28;20791;-67
2022/02/10 20:10:56;;;;;;;21.80;17.77;;;7.00;99.90;;;7.93;100.00;-19996.72;5051889;28;20244;-77
2022/02/10 20:13:27;;;;;;;20.83;17.53;;;7.00;99.90;;;7.86;100.00;-19994.34;5054578;28;20209;-78
2022/02/10 20:15:59;;;;;;;22.17;17.20;;;7.00;99.90;;;7.76;100.00;-19991.09;5045318;28;20233;-61
2022/02/10 20:18:27;;;;;;;21.60;17.47;;;6.90;99.90;;;7.89;100.00;-19995.34;5031824;28;20249;-64
2022/02/10 20:20:57;;;;;;;19.90;16.20;;;6.90;99.90;;;7.65;100.00;-19987.34;5031820;28;20263;-71
2022/02/10 20:23:31;;;;;;;22.77;17.83;;;6.90;99.90;;;7.80;100.00;-19992.47;5031825;28;20256;-61
2022/02/10 20:26:10;;;;;;;23.80;17.23;;;6.90;99.90;;;7.75;100.00;-19990.75;5032306;28;20308;-65
2022/02/10 20:28:39;;;;;;;22.50;17.07;;;6.90;99.90;;;7.79;100.00;-19992.13;5032033;28;20198;-63
2022/02/10 20:31:09;;;;;;;23.93;17.43;;;6.80;99.90;;;7.90;100.00;-19995.72;5032305;28;20693;-70
2022/02/10 20:33:38;;;;;;;21.77;18.00;;;6.90;99.90;;;7.81;100.00;-19992.81;5047403;28;20601;-61
2022/02/10 20:36:08;;;;;;;21.50;17.97;;;6.80;99.90;;;7.73;100.00;-19990.06;5051239;28;20718;-62
2022/02/10 20:38:41;;;;;;;21.17;16.53;;;6.90;99.90;;;7.84;100.00;-19993.81;5051426;28;20248;-65
2022/02/10 20:41:12;;;;;;;20.47;16.60;;;6.90;99.90;;;7.67;100.00;-19987.84;5051479;28;20213;-71
2022/02/10 20:43:42;;;;;;;21.33;17.17;;;6.80;99.90;;;7.86;100.00;-19994.50;5051134;28;20236;-63
2022/02/10 20:46:14;;;;;;;22.33;17.47;;;6.80;99.90;;;7.59;100.00;-19985.28;5052089;28;20227;-67
2022/02/10 20:48:43;;;;;;;22.03;17.77;;;6.80;99.90;;;7.46;100.00;-19980.66;5051167;28;20249;-65
2022/02/10 20:51:15;;;;;;;22.37;17.07;;;6.80;99.90;;;7.51;100.00;-19982.38;5038366;28;20228;-71
2022/02/10 20:53:46;;;;;;;21.33;17.30;;;6.70;99.90;;;7.41;100.00;-19979.31;5040726;28;20328;-69
2022/02/10 20:56:18;;;;;;;24.20;17.40;;;6.70;99.90;;;7.43;100.00;-19979.97;5046208;28;20312;-60
2022/02/10 20:58:53;;;;;;;22.27;17.67;;;6.70;99.90;;;7.59;100.00;-19985.09;5031262;28;20186;-55
2022/02/10 21:01:21;;;;;;;22.33;17.47;;;6.60;99.90;;;7.43;100.00;-19979.81;5031976;28;20268;-62
2022/02/10 21:03:50;;;;;;;21.50;17.43;;;6.60;99.90;;;7.45;100.00;-19980.50;5030767;28;20250;-62
2022/02/10 21:06:39;;;;;;;19.03;16.00;;;6.60;99.90;;;7.43;100.00;-19979.97;5011205;28;20223;-61
2022/02/10 21:09:13;;;;;;;18.73;15.27;;;6.60;99.90;;;7.40;100.00;-19978.97;5011486;28;20230;-67
2022/02/10 21:11:42;;;;;;;19.93;15.37;;;6.60;99.90;;;7.36;100.00;-19977.59;5014616;28;20232;-74
2022/02/10 21:14:17;;;;;;;19.30;16.43;;;6.60;99.90;;;7.30;100.00;-19975.53;5031287;28;21026;-71
2022/02/10 21:16:45;;;;;;;20.17;14.97;;;6.60;99.90;;;7.38;100.00;-19978.28;5031400;28;20212;-78
2022/02/10 21:19:16;;;;;;;20.13;15.73;;;6.60;99.90;;;7.32;100.00;-19976.06;5031450;28;20249;-62
2022/02/10 21:21:46;;;;;;;17.23;13.87;;;6.60;99.90;;;7.25;100.00;-19973.66;5030772;28;20312;-63
2022/02/10 21:24:20;;;;;;;17.37;13.50;;;6.60;99.90;;;7.25;100.00;-19973.66;5030682;28;20254;-62
2022/02/10 21:27:04;;;;;;;16.63;13.30;;;6.50;99.90;;;7.36;100.00;-19977.41;5030946;28;20321;-62
2022/02/10 21:29:32;;;;;;;16.80;12.50;;;6.50;99.90;;;7.34;100.00;-19976.91;5030675;28;20222;-61
2022/02/10 21:32:00;;;;;;;15.27;12.83;;;6.50;99.90;;;7.32;100.00;-19976.22;5030548;28;20226;-71
2022/02/10 21:34:33;;;;;;;15.30;12.77;;;6.50;99.90;;;7.31;100.00;-19975.88;5030969;28;20257;-63
2022/02/10 21:37:07;;;;;;;15.40;12.03;;;6.50;99.90;;;7.37;100.00;-19977.75;5030723;28;20721;-61
2022/02/10 21:39:48;;;;;;;14.17;11.00;;;6.50;99.90;;;7.33;100.00;-19976.56;5030882;28;20236;-62
2022/02/10 22:10:34;;;;;;;7.90;5.97;;;6.30;99.90;;;7.08;100.00;-19968.03;5021790;28;20304;-65
2022/02/10 22:18:38;;;;;;;6.13;5.00;;;6.30;99.90;;;7.26;100.00;-19974.19;5018323;28;20317;-64
2022/02/10 22:21:09;;;;;;;7.50;5.13;;;6.30;99.90;;;7.27;100.00;-19974.34;5014411;28;20608;-69
2022/02/10 22:23:42;;;;;;;6.60;5.10;;;6.30;99.90;;;6.92;100.00;-19962.38;5014391;28;20296;-66
2022/02/10 22:26:18;;;;;;;5.67;4.20;;;6.20;99.90;;;6.72;100.00;-19955.53;5014992;28;20321;-67
2022/02/10 22:28:53;;;;;;;4.80;4.30;;;6.20;99.90;;;6.83;100.00;-19959.31;5014029;28;20277;-68
2022/02/10 22:31:32;;;;;;;6.73;4.80;;;6.10;99.90;;;6.80;100.00;-19958.44;5015166;28;20285;-70
2022/02/10 22:34:11;;;;;;;5.93;3.70;;;6.10;99.90;;;6.97;100.00;-19964.25;5013847;28;20305;-70
2022/02/10 22:36:42;;;;;;;4.20;3.60;;;6.10;99.90;;;6.83;100.00;-19959.47;5017324;28;20257;-63
2022/02/10 22:39:12;;;;;;;4.67;3.73;;;6.10;99.90;;;6.75;100.00;-19956.75;5033833;28;20233;-66
2022/02/10 22:41:42;;;;;;;5.40;3.53;;;6.00;99.90;;;6.77;100.00;-19957.44;5034044;28;20237;-77
2022/02/10 22:44:10;;;;;;;4.57;3.53;;;6.00;99.90;;;6.65;100.00;-19953.16;5033672;28;20242;-62
2022/02/10 22:46:38;;;;;;;4.97;3.67;;;6.00;99.90;;;6.71;100.00;-19955.22;5034352;28;20614;-66
2022/02/10 22:49:07;;;;;;;5.33;4.00;;;6.00;99.90;;;6.72;100.00;-19955.72;5053615;28;20217;-65
2022/02/10 22:51:38;;;;;;;3.57;3.27;;;6.00;99.90;;;6.71;100.00;-19955.38;5037661;28;20234;-65
2022/02/10 22:54:08;;;;;;;5.47;3.67;;;6.00;99.90;;;6.75;100.00;-19956.56;5046066;28;20308;-65
2022/02/10 22:56:38;;;;;;;5.80;3.60;;;6.00;99.90;;;6.63;100.00;-19952.47;5045887;28;20308;-77
2022/02/10 22:59:09;;;;;;;4.03;3.57;;;6.00;99.90;;;6.61;100.00;-19951.97;5033271;28;20249;-68
2022/02/10 23:01:39;;;;;;;5.33;4.10;;;5.90;99.90;;;6.76;100.00;-19956.91;5034312;28;20214;-66
2022/02/10 23:04:08;;;;;;;4.40;3.43;;;6.00;99.90;;;6.59;100.00;-19951.09;5032581;28;20576;-69
2022/02/10 23:06:37;;;;;;;6.90;3.73;;;5.90;99.90;;;6.49;100.00;-19947.84;5049348;28;20243;-70
2022/02/10 23:09:28;;;;;;;4.80;3.63;;;5.80;99.90;;;6.42;100.00;-19945.47;5041288;28;20324;-70
2022/02/10 23:11:59;;;;;;;4.73;3.97;;;5.80;99.90;;;6.54;100.00;-19949.41;5033355;28;20236;-69
2022/02/10 23:14:29;;;;;;;4.50;3.63;;;5.80;99.90;;;6.54;100.00;-19949.41;5033175;28;20299;-71
2022/02/10 23:16:59;;;;;;;4.13;3.50;;;5.80;99.90;;;6.40;100.00;-19944.78;5035651;28;20265;-70
2022/02/10 23:19:27;;;;;;;5.57;3.90;;;5.70;99.90;;;6.38;100.00;-19944.09;5053240;28;20186;-69
2022/02/10 23:21:55;;;;;;;4.57;4.00;;;5.70;99.90;;;6.41;100.00;-19944.94;5052670;28;20269;-70
2022/02/10 23:24:24;;;;;;;5.33;4.37;;;5.70;99.90;;;6.37;100.00;-19943.75;5052846;28;20260;-71
2022/02/10 23:26:52;;;;;;;5.20;4.10;;;5.70;99.90;;;6.32;100.00;-19942.03;5052989;28;20221;-71
2022/02/10 23:29:20;;;;;;;4.77;4.07;;;5.60;99.90;;;6.28;100.00;-19940.50;5052281;28;20249;-71
2022/02/10 23:31:50;;;;;;;5.83;4.70;;;5.60;99.90;;;6.25;100.00;-19939.47;5052744;28;20208;-71
2022/02/10 23:34:18;;;;;;;7.40;4.30;;;5.60;99.90;;;6.14;100.00;-19935.88;5053151;28;20259;-73
2022/02/10 23:36:49;;;;;;;4.77;4.20;;;5.50;99.90;;;6.34;100.00;-19942.56;5052824;28;20233;-73
2022/02/10 23:39:24;;;;;;;5.63;4.33;;;5.60;99.90;;;6.37;100.00;-19943.75;5052917;28;20234;-70
2022/02/10 23:42:04;;;;;;;7.57;4.10;;;5.60;99.90;;;6.19;100.00;-19937.59;5052963;28;20224;-71